Time;durP1;ratioP1;P1;durP2;ratioP2;P2;SDS_P1;SDS_P2;PMS_P1;PMS_P2;Temp;Humidity;BMP_temperature;BMP_pressure;BME280_temperature;BME280_humidity;BME280_pressure;Samples;Min_cycle;Max_cycle;Signal;HPM_P1;HPM_P2
2022/01/03 00:01:58;;;;;;;38.67;5.47;;;;;;;;;;4993677;28;20471;-63
2022/01/03 00:04:25;;;;;;;30.30;5.07;;;;;;;;;;4993231;28;20058;-62
2022/01/03 00:06:51;;;;;;;33.80;5.40;;;;;;;;;;4993751;28;20034;-63
2022/01/03 00:09:17;;;;;;;37.45;6.43;;;;;;;;;;4993448;28;20379;-62
2022/01/03 00:11:43;;;;;;;44.92;6.82;;;;;;;;;;4993581;28;20030;-62
2022/01/03 00:14:09;;;;;;;44.88;5.85;;;;;;;;;;4993500;28;20060;-62
2022/01/03 00:16:35;;;;;;;36.80;5.93;;;;;;;;;;4993284;28;20403;-63
2022/01/03 00:19:02;;;;;;;39.20;5.70;;;;;;;;;;4993089;28;20038;-62
2022/01/03 00:21:32;;;;;;;33.35;5.50;;;;;;;;;;4993379;28;20026;-62
2022/01/03 00:24:08;;;;;;;38.20;5.40;;;;;;;;;;4993232;28;20549;-62
2022/01/03 00:26:35;;;;;;;35.13;5.22;;;;;;;;;;4993206;28;20046;-63
2022/01/03 00:29:05;;;;;;;41.53;7.13;;;;;;;;;;4993376;28;20022;-62
2022/01/03 00:31:36;;;;;;;30.73;5.53;;;;;;;;;;4992749;28;20489;-62
2022/01/03 00:34:04;;;;;;;36.35;6.50;;;;;;;;;;4993192;28;20458;-63
2022/01/03 00:36:31;;;;;;;39.15;6.38;;;;;;;;;;4993108;28;20034;-63
2022/01/03 00:38:57;;;;;;;39.25;5.35;;;;;;;;;;4972488;28;20062;-62
2022/01/03 00:41:23;;;;;;;37.83;6.65;;;;;;;;;;4973802;28;20031;-62
2022/01/03 00:43:51;;;;;;;37.50;5.32;;;;;;;;;;4973448;28;20027;-62
2022/01/03 00:46:18;;;;;;;38.80;5.93;;;;;;;;;;4971771;28;20035;-63
2022/01/03 00:48:45;;;;;;;30.80;4.40;;;;;;;;;;4973792;28;20031;-63
2022/01/03 00:51:14;;;;;;;32.53;4.82;;;;;;;;;;4973289;28;20515;-62
2022/01/03 00:53:41;;;;;;;44.30;6.22;;;;;;;;;;4973370;28;20495;-62
2022/01/03 00:56:14;;;;;;;47.97;6.65;;;;;;;;;;4972204;28;20034;-62
2022/01/03 00:59:03;;;;;;;34.20;6.68;;;;;;;;;;4973308;28;20491;-62
2022/01/03 01:01:31;;;;;;;36.00;5.18;;;;;;;;;;4969211;28;20155;-62
2022/01/03 01:03:58;;;;;;;27.65;5.97;;;;;;;;;;4971915;28;20026;-63
2022/01/03 01:06:25;;;;;;;34.47;6.05;;;;;;;;;;4972383;28;20034;-62
2022/01/03 01:08:55;;;;;;;29.60;5.18;;;;;;;;;;4973483;28;20026;-63
2022/01/03 01:11:25;;;;;;;35.38;5.85;;;;;;;;;;4973128;28;20030;-63
2022/01/03 01:13:51;;;;;;;40.83;4.88;;;;;;;;;;4971892;28;20023;-63
2022/01/03 01:16:18;;;;;;;38.17;6.03;;;;;;;;;;4972512;28;20027;-62
2022/01/03 01:18:49;;;;;;;42.58;6.13;;;;;;;;;;4972077;28;20570;-63
2022/01/03 01:21:15;;;;;;;41.58;5.88;;;;;;;;;;4971649;28;20035;-62
2022/01/03 01:23:42;;;;;;;44.45;5.43;;;;;;;;;;4973259;28;20034;-62
2022/01/03 01:28:55;;;;;;;49.65;5.60;;;;;;;;;;4971881;28;20538;-63
2022/01/03 01:31:22;;;;;;;29.80;5.53;;;;;;;;;;4972398;28;20038;-63
2022/01/03 01:33:52;;;;;;;28.40;4.88;;;;;;;;;;4971837;28;20050;-62
2022/01/03 01:36:20;;;;;;;45.60;6.68;;;;;;;;;;4971477;28;20046;-62
2022/01/03 01:38:50;;;;;;;45.38;7.03;;;;;;;;;;4971760;28;20051;-63
2022/01/03 01:41:18;;;;;;;36.33;4.25;;;;;;;;;;4971636;28;20557;-63
2022/01/03 01:43:49;;;;;;;28.17;4.63;;;;;;;;;;4971370;28;20031;-62
2022/01/03 01:46:24;;;;;;;33.50;5.78;;;;;;;;;;4971359;28;20520;-63
2022/01/03 01:48:55;;;;;;;31.35;6.65;;;;;;;;;;4971559;28;20027;-63
2022/01/03 01:51:25;;;;;;;50.40;7.70;;;;;;;;;;4971534;28;20041;-62
2022/01/03 01:53:56;;;;;;;40.08;5.72;;;;;;;;;;4971588;28;20050;-63
2022/01/03 01:56:45;;;;;;;32.78;6.80;;;;;;;;;;4972621;28;20059;-63
2022/01/03 01:59:19;;;;;;;37.88;7.07;;;;;;;;;;4970743;28;20113;-62
2022/01/03 02:01:46;;;;;;;;;;;;;;;;;;4972345;28;20031;-63
2022/01/03 02:04:32;;;;;;;27.05;5.25;;;;;;;;;;4971382;28;19957;-62
2022/01/03 02:07:06;;;;;;;39.10;5.38;;;;;;;;;;4972714;28;20360;-63
2022/01/03 02:09:38;;;;;;;34.15;5.43;;;;;;;;;;4973296;28;20106;-63
2022/01/03 02:12:06;;;;;;;38.45;7.32;;;;;;;;;;4971547;28;20019;-62
2022/01/03 02:14:37;;;;;;;46.13;6.18;;;;;;;;;;4971070;28;20556;-62
2022/01/03 02:17:06;;;;;;;36.55;6.18;;;;;;;;;;4972148;28;20126;-63
2022/01/03 02:19:35;;;;;;;35.90;5.75;;;;;;;;;;4974867;28;20038;-63
2022/01/03 02:22:01;;;;;;;37.03;6.03;;;;;;;;;;4976402;28;20026;-63
2022/01/03 02:24:35;;;;;;;37.78;5.55;;;;;;;;;;4974232;28;20056;-62
2022/01/03 02:27:02;;;;;;;34.53;5.28;;;;;;;;;;4974777;28;20046;-63
2022/01/03 02:29:28;;;;;;;28.48;4.93;;;;;;;;;;4974726;28;20231;-62
2022/01/03 02:31:55;;;;;;;40.60;5.63;;;;;;;;;;4976152;28;20027;-62
2022/01/03 02:34:23;;;;;;;29.75;5.07;;;;;;;;;;4975688;28;20042;-62
2022/01/03 02:36:50;;;;;;;33.05;5.35;;;;;;;;;;4974757;28;20174;-62
2022/01/03 02:39:17;;;;;;;49.55;7.53;;;;;;;;;;4994605;28;20192;-62
2022/01/03 02:41:43;;;;;;;30.42;5.95;;;;;;;;;;4977558;28;20058;-63
2022/01/03 02:44:09;;;;;;;45.95;6.65;;;;;;;;;;4977690;28;20040;-62
2022/01/03 02:46:36;;;;;;;35.78;4.93;;;;;;;;;;4977515;28;20088;-62
2022/01/03 02:49:05;;;;;;;43.75;5.72;;;;;;;;;;4977721;28;20050;-63
2022/01/03 02:51:32;;;;;;;34.70;5.38;;;;;;;;;;4994757;28;20037;-63
2022/01/03 02:53:58;;;;;;;41.30;5.43;;;;;;;;;;4994935;28;20470;-63
2022/01/03 02:56:24;;;;;;;41.85;5.88;;;;;;;;;;4976949;28;20037;-62
2022/01/03 02:58:50;;;;;;;39.92;5.50;;;;;;;;;;4977668;28;20030;-62
2022/01/03 03:01:17;;;;;;;31.45;5.32;;;;;;;;;;4977422;28;20406;-63
2022/01/03 03:03:50;;;;;;;39.88;6.03;;;;;;;;;;4977351;28;20407;-63
2022/01/03 03:06:16;;;;;;;35.17;5.95;;;;;;;;;;4977297;28;20042;-62
2022/01/03 03:08:43;;;;;;;36.80;5.72;;;;;;;;;;4977084;28;20030;-62
2022/01/03 03:11:09;;;;;;;45.15;4.82;;;;;;;;;;4977056;28;20041;-63
2022/01/03 03:13:36;;;;;;;34.75;4.72;;;;;;;;;;4976880;28;20165;-63
2022/01/03 03:16:05;;;;;;;36.28;5.55;;;;;;;;;;4977738;28;20113;-63
2022/01/03 03:18:31;;;;;;;40.35;7.70;;;;;;;;;;4976792;28;20100;-62
2022/01/03 03:20:58;;;;;;;44.15;5.80;;;;;;;;;;4977108;28;20557;-63
2022/01/03 03:23:24;;;;;;;31.73;4.97;;;;;;;;;;4976995;28;20030;-62
2022/01/03 03:25:52;;;;;;;28.13;4.75;;;;;;;;;;4976606;28;20030;-62
2022/01/03 03:28:24;;;;;;;28.10;4.72;;;;;;;;;;4976513;28;20461;-63
2022/01/03 03:30:51;;;;;;;46.45;5.68;;;;;;;;;;4975301;28;20062;-62
2022/01/03 03:33:29;;;;;;;42.08;5.40;;;;;;;;;;4975057;28;20036;-62
2022/01/03 03:35:59;;;;;;;25.95;5.30;;;;;;;;;;4976159;28;20034;-62
2022/01/03 03:38:27;;;;;;;29.30;4.95;;;;;;;;;;4974861;28;20145;-62
2022/01/03 03:40:58;;;;;;;33.97;6.25;;;;;;;;;;4974234;28;20041;-62
2022/01/03 03:43:30;;;;;;;45.47;5.68;;;;;;;;;;4972877;28;20492;-62
2022/01/03 03:45:57;;;;;;;55.30;6.35;;;;;;;;;;4975513;28;20109;-62
2022/01/03 03:48:24;;;;;;;38.60;5.63;;;;;;;;;;4978534;28;20026;-62
2022/01/03 03:50:50;;;;;;;50.60;7.47;;;;;;;;;;4983043;28;20014;-62
2022/01/03 03:53:18;;;;;;;42.58;6.30;;;;;;;;;;4975825;28;20031;-62
2022/01/03 03:55:44;;;;;;;52.47;6.05;;;;;;;;;;4975618;28;20036;-62
2022/01/03 03:58:13;;;;;;;33.72;6.13;;;;;;;;;;4976302;28;20061;-63
2022/01/03 04:00:40;;;;;;;34.65;5.28;;;;;;;;;;4975575;28;20050;-63
2022/01/03 04:03:07;;;;;;;34.60;4.47;;;;;;;;;;4976005;28;20077;-63
2022/01/03 04:05:34;;;;;;;37.50;5.80;;;;;;;;;;4975735;28;20030;-62
2022/01/03 04:08:01;;;;;;;45.97;6.25;;;;;;;;;;4991961;28;20390;-62
2022/01/03 04:10:27;;;;;;;48.80;6.22;;;;;;;;;;4975426;28;20022;-62
2022/01/03 04:12:54;;;;;;;36.13;5.32;;;;;;;;;;4966380;28;20566;-62
2022/01/03 04:15:20;;;;;;;39.28;5.38;;;;;;;;;;4986952;28;20409;-63
2022/01/03 04:17:48;;;;;;;33.90;5.32;;;;;;;;;;4972886;28;20027;-63
2022/01/03 04:20:18;;;;;;;31.08;5.88;;;;;;;;;;4975543;28;20402;-62
2022/01/03 04:22:45;;;;;;;28.15;5.28;;;;;;;;;;4993178;28;20032;-63
2022/01/03 04:25:12;;;;;;;39.42;4.68;;;;;;;;;;4984208;28;20026;-62
2022/01/03 04:27:39;;;;;;;38.33;4.82;;;;;;;;;;4966460;28;20035;-63
2022/01/03 04:30:05;;;;;;;49.33;5.38;;;;;;;;;;4991112;28;20053;-63
2022/01/03 04:32:32;;;;;;;32.17;5.20;;;;;;;;;;4990982;28;20034;-63
2022/01/03 04:34:58;;;;;;;45.65;6.55;;;;;;;;;;4992320;28;20407;-63
2022/01/03 04:37:24;;;;;;;34.00;6.13;;;;;;;;;;4975110;28;20070;-63
2022/01/03 04:39:51;;;;;;;36.33;7.05;;;;;;;;;;4974407;28;20498;-63
2022/01/03 04:42:17;;;;;;;34.92;4.53;;;;;;;;;;4975650;28;20062;-63
2022/01/03 04:44:44;;;;;;;42.63;5.35;;;;;;;;;;4975519;28;20401;-63
2022/01/03 04:47:11;;;;;;;33.53;4.72;;;;;;;;;;4975333;28;20027;-63
2022/01/03 04:49:38;;;;;;;40.95;5.43;;;;;;;;;;4975519;28;20565;-62
2022/01/03 04:52:04;;;;;;;32.03;5.07;;;;;;;;;;4975503;28;20026;-62
2022/01/03 04:54:32;;;;;;;43.83;6.25;;;;;;;;;;4975132;28;20022;-63
2022/01/03 04:56:59;;;;;;;30.13;4.93;;;;;;;;;;4975562;28;20042;-62
2022/01/03 04:59:28;;;;;;;42.42;5.80;;;;;;;;;;4974958;28;20117;-63
2022/01/03 05:01:54;;;;;;;34.58;5.50;;;;;;;;;;4975302;28;20061;-63
2022/01/03 05:04:21;;;;;;;36.70;5.13;;;;;;;;;;4975277;28;20061;-62
2022/01/03 05:06:48;;;;;;;38.50;5.00;;;;;;;;;;4974979;28;20026;-62
2022/01/03 05:09:14;;;;;;;34.78;4.57;;;;;;;;;;4992544;28;20026;-62
2022/01/03 05:11:40;;;;;;;32.85;5.93;;;;;;;;;;4992692;28;20394;-62
2022/01/03 05:14:06;;;;;;;36.13;5.07;;;;;;;;;;4974965;28;20037;-63
2022/01/03 05:16:33;;;;;;;30.80;5.72;;;;;;;;;;4974881;28;20026;-63
2022/01/03 05:18:59;;;;;;;37.08;5.15;;;;;;;;;;4992677;28;20029;-62
2022/01/03 05:21:26;;;;;;;34.38;5.18;;;;;;;;;;4992247;28;20034;-62
2022/01/03 05:23:52;;;;;;;21.48;4.38;;;;;;;;;;4975375;28;20050;-63
2022/01/03 05:26:19;;;;;;;31.17;5.22;;;;;;;;;;4974900;28;20057;-62
2022/01/03 05:28:47;;;;;;;48.05;7.53;;;;;;;;;;4971897;28;20033;-62
2022/01/03 05:31:13;;;;;;;27.90;4.93;;;;;;;;;;4971333;28;20026;-62
2022/01/03 05:33:40;;;;;;;41.47;5.25;;;;;;;;;;4975422;28;20026;-62
2022/01/03 05:36:06;;;;;;;38.47;5.53;;;;;;;;;;4974929;28;20030;-63
2022/01/03 05:38:33;;;;;;;26.88;5.80;;;;;;;;;;4975089;28;20057;-63
2022/01/03 05:41:00;;;;;;;27.58;3.90;;;;;;;;;;4981288;28;20049;-63
2022/01/03 05:43:26;;;;;;;37.65;5.55;;;;;;;;;;4982847;28;20088;-62
2022/01/03 05:45:52;;;;;;;26.95;4.13;;;;;;;;;;4998875;28;20061;-62
2022/01/03 05:48:19;;;;;;;30.13;4.57;;;;;;;;;;4976605;28;20019;-62
2022/01/03 05:50:46;;;;;;;43.75;5.20;;;;;;;;;;4985285;28;20156;-62
2022/01/03 05:53:12;;;;;;;37.22;4.85;;;;;;;;;;4977075;28;20030;-62
2022/01/03 05:55:38;;;;;;;26.63;4.40;;;;;;;;;;4996446;28;20039;-62
2022/01/03 05:58:05;;;;;;;30.90;4.00;;;;;;;;;;4986096;28;20510;-62
2022/01/03 06:00:34;;;;;;;32.58;4.40;;;;;;;;;;4980977;28;20509;-62
2022/01/03 06:03:00;;;;;;;33.10;4.53;;;;;;;;;;4974180;28;20090;-62
2022/01/03 06:07:58;;;;;;;26.50;4.07;;;;;;;;;;4995494;28;20026;-62
2022/01/03 06:10:27;;;;;;;29.48;4.22;;;;;;;;;;4974074;28;20031;-62
2022/01/03 06:12:53;;;;;;;25.95;4.78;;;;;;;;;;4975313;28;20045;-63
2022/01/03 06:15:25;;;;;;;25.77;4.65;;;;;;;;;;4973230;28;20042;-62
2022/01/03 06:17:51;;;;;;;31.05;4.88;;;;;;;;;;4974022;28;20037;-62
2022/01/03 06:20:18;;;;;;;31.02;4.38;;;;;;;;;;4988564;28;20026;-63
2022/01/03 06:22:45;;;;;;;29.85;4.15;;;;;;;;;;4978635;28;20045;-62
2022/01/03 06:25:12;;;;;;;42.05;5.60;;;;;;;;;;4959773;28;20062;-69
2022/01/03 06:27:40;;;;;;;26.63;4.22;;;;;;;;;;4981106;28;20038;-63
2022/01/03 06:30:07;;;;;;;33.40;4.55;;;;;;;;;;4977628;28;20022;-63
2022/01/03 06:32:36;;;;;;;27.95;4.85;;;;;;;;;;4977889;28;20467;-63
2022/01/03 06:35:03;;;;;;;30.13;4.78;;;;;;;;;;4978007;28;20026;-63
2022/01/03 06:37:30;;;;;;;21.55;3.17;;;;;;;;;;4975035;28;20046;-63
2022/01/03 06:40:06;;;;;;;25.65;4.22;;;;;;;;;;4970483;28;20026;-66
2022/01/03 06:42:33;;;;;;;30.17;5.22;;;;;;;;;;4971395;28;20034;-62
2022/01/03 06:45:00;;;;;;;20.85;3.85;;;;;;;;;;4990517;28;20030;-62
2022/01/03 06:47:26;;;;;;;36.33;4.63;;;;;;;;;;4994586;28;20057;-62
2022/01/03 06:49:53;;;;;;;27.52;4.18;;;;;;;;;;4995169;28;20080;-63
2022/01/03 06:52:19;;;;;;;31.63;4.55;;;;;;;;;;4974177;28;20039;-63
2022/01/03 06:54:45;;;;;;;33.60;4.53;;;;;;;;;;4974378;28;20033;-63
2022/01/03 06:57:11;;;;;;;26.67;3.67;;;;;;;;;;4974466;28;20026;-63
2022/01/03 06:59:39;;;;;;;26.63;3.75;;;;;;;;;;4974388;28;20126;-62
2022/01/03 07:02:06;;;;;;;29.25;4.05;;;;;;;;;;4974497;28;20031;-63
2022/01/03 07:04:32;;;;;;;24.52;4.53;;;;;;;;;;4972570;28;20039;-63
2022/01/03 07:06:59;;;;;;;30.50;4.00;;;;;;;;;;4975629;28;20035;-63
2022/01/03 07:09:25;;;;;;;29.00;4.43;;;;;;;;;;4975280;28;20109;-63
2022/01/03 07:11:51;;;;;;;30.30;4.55;;;;;;;;;;4975549;28;20019;-63
2022/01/03 07:19:35;;;;;;;26.75;4.57;;;;;;;;;;4974802;28;20034;-63
2022/01/03 07:22:04;;;;;;;20.35;3.88;;;;;;;;;;4975341;28;20029;-63
2022/01/03 07:24:31;;;;;;;22.60;3.35;;;;;;;;;;4975040;28;20049;-62
2022/01/03 07:26:57;;;;;;;27.52;4.00;;;;;;;;;;4975311;28;20027;-63
2022/01/03 07:29:23;;;;;;;24.35;4.40;;;;;;;;;;4975046;28;20153;-63
2022/01/03 07:31:49;;;;;;;24.75;3.65;;;;;;;;;;4974631;28;20015;-63
2022/01/03 07:34:15;;;;;;;20.25;3.33;;;;;;;;;;4975067;28;20023;-63
2022/01/03 07:36:41;;;;;;;26.77;3.38;;;;;;;;;;4974881;28;20105;-63
2022/01/03 07:39:08;;;;;;;23.05;4.22;;;;;;;;;;4992855;28;20050;-63
2022/01/03 07:41:34;;;;;;;24.60;3.72;;;;;;;;;;4992611;28;20034;-63
2022/01/03 07:44:00;;;;;;;27.92;3.45;;;;;;;;;;4974070;28;20376;-63
2022/01/03 07:46:26;;;;;;;23.23;3.85;;;;;;;;;;4993279;28;20096;-63
2022/01/03 07:48:52;;;;;;;23.70;3.38;;;;;;;;;;4985245;28;20446;-64
2022/01/03 07:51:18;;;;;;;14.90;3.05;;;;;;;;;;4991950;28;20037;-65
2022/01/03 07:53:44;;;;;;;18.23;3.88;;;;;;;;;;5003325;28;20030;-65
2022/01/03 07:56:11;;;;;;;18.75;3.83;;;;;;;;;;5000206;28;20038;-64
2022/01/03 07:58:37;;;;;;;20.77;2.53;;;;;;;;;;4991609;28;20035;-64
2022/01/03 08:01:04;;;;;;;22.15;3.38;;;;;;;;;;4990323;28;20237;-64
2022/01/03 08:03:31;;;;;;;16.08;2.72;;;;;;;;;;4998478;28;20041;-64
2022/01/03 08:05:57;;;;;;;24.20;2.92;;;;;;;;;;4996336;28;20061;-64
2022/01/03 08:08:23;;;;;;;13.95;3.40;;;;;;;;;;4992218;28;20497;-64
2022/01/03 08:10:49;;;;;;;19.25;3.45;;;;;;;;;;4992114;28;20045;-64
2022/01/03 08:13:15;;;;;;;19.98;3.00;;;;;;;;;;4993578;28;20061;-64
2022/01/03 08:15:41;;;;;;;17.52;2.95;;;;;;;;;;4992376;28;20030;-64
2022/01/03 08:18:08;;;;;;;19.45;2.92;;;;;;;;;;4999862;28;20084;-64
2022/01/03 08:20:34;;;;;;;19.33;4.88;;;;;;;;;;4972302;28;20038;-64
2022/01/03 08:23:00;;;;;;;22.50;6.25;;;;;;;;;;4992815;28;20479;-64
2022/01/03 08:25:26;;;;;;;22.30;8.55;;;;;;;;;;4996816;28;20046;-64
2022/01/03 08:27:52;;;;;;;22.77;5.40;;;;;;;;;;5003741;28;20036;-64
2022/01/03 08:30:18;;;;;;;26.80;4.75;;;;;;;;;;4995880;28;20041;-64
2022/01/03 08:32:45;;;;;;;18.90;3.80;;;;;;;;;;5008910;28;20364;-64
2022/01/03 08:35:11;;;;;;;22.08;4.57;;;;;;;;;;4997314;28;20034;-64
2022/01/03 08:37:38;;;;;;;23.00;3.78;;;;;;;;;;5003777;28;20042;-64
2022/01/03 08:40:06;;;;;;;26.77;4.65;;;;;;;;;;4996763;28;20112;-64
2022/01/03 08:42:32;;;;;;;23.52;3.33;;;;;;;;;;4995757;28;20038;-64
2022/01/03 08:44:58;;;;;;;30.20;5.18;;;;;;;;;;5003549;28;20022;-64
2022/01/03 08:47:24;;;;;;;22.45;3.33;;;;;;;;;;4999863;28;20034;-64
2022/01/03 08:49:51;;;;;;;15.55;3.75;;;;;;;;;;4996414;28;20113;-64
2022/01/03 08:52:17;;;;;;;17.10;3.55;;;;;;;;;;4998241;28;20072;-64
2022/01/03 08:54:43;;;;;;;19.35;3.17;;;;;;;;;;4992087;28;20026;-64
2022/01/03 08:57:09;;;;;;;15.40;3.53;;;;;;;;;;4996156;28;20080;-64
2022/01/03 08:59:35;;;;;;;19.02;2.92;;;;;;;;;;5002728;28;20093;-64
2022/01/03 09:02:01;;;;;;;23.42;3.38;;;;;;;;;;4993745;28;20035;-64
2022/01/03 09:04:27;;;;;;;20.52;2.90;;;;;;;;;;4991964;28;20081;-64
2022/01/03 09:06:53;;;;;;;25.63;3.10;;;;;;;;;;4996655;28;20073;-64
2022/01/03 09:09:20;;;;;;;19.17;2.75;;;;;;;;;;4995226;28;20410;-64
2022/01/03 09:11:46;;;;;;;19.55;4.00;;;;;;;;;;4992960;28;20033;-64
2022/01/03 09:14:12;;;;;;;19.52;3.05;;;;;;;;;;4996646;28;20022;-64
2022/01/03 09:16:38;;;;;;;18.60;2.60;;;;;;;;;;5003208;28;20030;-64
2022/01/03 09:19:04;;;;;;;15.50;2.53;;;;;;;;;;4998519;28;20034;-64
2022/01/03 09:21:30;;;;;;;12.63;2.47;;;;;;;;;;4994479;28;20058;-64
2022/01/03 09:24:18;;;;;;;11.43;2.33;;;;;;;;;;4993839;28;20030;-64
2022/01/03 09:29:27;;;;;;;12.85;2.35;;;;;;;;;;4995739;28;20026;-64
2022/01/03 09:31:53;;;;;;;7.25;1.67;;;;;;;;;;4994624;28;20030;-64
2022/01/03 09:34:20;;;;;;;12.45;1.95;;;;;;;;;;4996081;28;20061;-64
2022/01/03 09:36:46;;;;;;;18.35;3.05;;;;;;;;;;4995730;28;20018;-64
2022/01/03 09:39:12;;;;;;;14.15;2.13;;;;;;;;;;4982859;28;20065;-64
2022/01/03 09:41:44;;;;;;;16.20;2.45;;;;;;;;;;5002718;28;20037;-64
2022/01/03 09:44:14;;;;;;;11.52;2.33;;;;;;;;;;4997946;28;20026;-64
2022/01/03 09:46:41;;;;;;;10.73;1.88;;;;;;;;;;5003501;28;20565;-64
2022/01/03 09:49:09;;;;;;;16.35;2.58;;;;;;;;;;5003949;28;20513;-64
2022/01/03 09:51:35;;;;;;;15.65;2.63;;;;;;;;;;4995756;28;20033;-64
2022/01/03 09:54:04;;;;;;;19.67;2.63;;;;;;;;;;4998421;28;20026;-64
2022/01/03 09:56:31;;;;;;;17.75;2.78;;;;;;;;;;5001001;28;20010;-64
2022/01/03 09:59:00;;;;;;;10.00;2.20;;;;;;;;;;4994590;28;20035;-64
2022/01/03 10:01:26;;;;;;;18.00;2.88;;;;;;;;;;4984002;28;20033;-64
2022/01/03 10:03:52;;;;;;;14.18;2.13;;;;;;;;;;5000369;28;20026;-64
2022/01/03 10:06:19;;;;;;;21.20;3.03;;;;;;;;;;4973953;28;20403;-64
2022/01/03 10:08:46;;;;;;;20.92;2.33;;;;;;;;;;4999213;28;20022;-64
2022/01/03 10:11:12;;;;;;;14.10;2.60;;;;;;;;;;4997414;28;20414;-64
2022/01/03 10:13:39;;;;;;;15.55;3.25;;;;;;;;;;4995321;28;20497;-64
2022/01/03 10:16:05;;;;;;;15.18;2.63;;;;;;;;;;5001339;28;20026;-64
2022/01/03 10:18:33;;;;;;;15.43;3.05;;;;;;;;;;4985659;28;21011;-64
2022/01/03 10:20:59;;;;;;;17.23;2.85;;;;;;;;;;4989309;28;20054;-64
2022/01/03 10:23:25;;;;;;;18.15;3.45;;;;;;;;;;4995126;28;20112;-64
2022/01/03 10:25:52;;;;;;;15.13;3.03;;;;;;;;;;5006427;28;20497;-64
2022/01/03 10:28:24;;;;;;;17.20;2.58;;;;;;;;;;4996447;28;20065;-63
2022/01/03 10:30:51;;;;;;;24.92;3.05;;;;;;;;;;4994651;28;20030;-63
2022/01/03 10:33:19;;;;;;;12.57;2.80;;;;;;;;;;4994201;28;20560;-64
2022/01/03 10:35:46;;;;;;;13.90;2.40;;;;;;;;;;4999507;28;20034;-64
2022/01/03 10:38:31;;;;;;;17.95;4.72;;;;;;;;;;5002474;28;20113;-64
2022/01/03 10:41:10;;;;;;;11.75;2.50;;;;;;;;;;4997869;28;20084;-64
2022/01/03 10:43:36;;;;;;;11.32;2.45;;;;;;;;;;4989281;28;20031;-64
2022/01/03 10:46:15;;;;;;;26.80;4.72;;;;;;;;;;4993722;28;20089;-64
2022/01/03 10:48:41;;;;;;;16.15;2.60;;;;;;;;;;4993793;28;20076;-63
2022/01/03 10:51:08;;;;;;;21.17;3.78;;;;;;;;;;4994309;28;20054;-64
2022/01/03 10:53:37;;;;;;;17.27;2.47;;;;;;;;;;4998075;28;20026;-63
2022/01/03 10:56:20;;;;;;;15.95;2.92;;;;;;;;;;4994510;28;20030;-63
2022/01/03 10:58:46;;;;;;;19.35;2.60;;;;;;;;;;5008169;28;20138;-63
2022/01/03 11:01:40;;;;;;;13.70;2.72;;;;;;;;;;4994648;28;20438;-64
2022/01/03 11:04:06;;;;;;;12.52;2.58;;;;;;;;;;4990913;28;20466;-63
2022/01/03 11:06:48;;;;;;;15.90;2.80;;;;;;;;;;4994018;28;20077;-64
2022/01/03 11:12:16;;;;;;;11.02;2.40;;;;;;;;;;4993636;28;20030;-63
2022/01/03 11:14:42;;;;;;;16.90;2.58;;;;;;;;;;4988759;28;20113;-63
2022/01/03 11:17:23;;;;;;;11.88;2.35;;;;;;;;;;4999976;28;20030;-63
2022/01/03 11:19:49;;;;;;;21.38;3.53;;;;;;;;;;4991170;28;20108;-63
2022/01/03 11:22:34;;;;;;;18.67;4.15;;;;;;;;;;4993825;28;20483;-63
2022/01/03 11:25:00;;;;;;;19.40;3.20;;;;;;;;;;4993171;28;20030;-63
2022/01/03 11:27:27;;;;;;;14.50;2.65;;;;;;;;;;4997866;28;20525;-64
2022/01/03 11:29:53;;;;;;;13.18;2.85;;;;;;;;;;4993673;28;20031;-63
2022/01/03 11:32:19;;;;;;;14.13;3.08;;;;;;;;;;4993794;28;20030;-63
2022/01/03 11:34:45;;;;;;;16.30;3.08;;;;;;;;;;4994135;28;20018;-63
2022/01/03 11:37:12;;;;;;;12.80;2.53;;;;;;;;;;4994023;28;20150;-63
2022/01/03 11:39:38;;;;;;;11.30;2.40;;;;;;;;;;4994190;28;20038;-64
2022/01/03 11:42:04;;;;;;;11.48;2.65;;;;;;;;;;4990455;28;20434;-64
2022/01/03 11:44:32;;;;;;;12.25;2.50;;;;;;;;;;4996653;28;20459;-64
2022/01/03 11:46:58;;;;;;;14.98;2.70;;;;;;;;;;5006613;28;20486;-64
2022/01/03 11:49:25;;;;;;;11.10;2.83;;;;;;;;;;4996333;28;20506;-64
2022/01/03 11:51:51;;;;;;;10.98;3.47;;;;;;;;;;4998462;28;20109;-64
2022/01/03 11:54:19;;;;;;;10.07;2.70;;;;;;;;;;4993915;28;20542;-63
2022/01/03 11:56:50;;;;;;;17.58;3.05;;;;;;;;;;4994549;28;20909;-64
2022/01/03 12:04:36;;;;;;;12.70;2.70;;;;;;;;;;5000750;28;20509;-64
2022/01/03 12:07:08;;;;;;;18.20;2.88;;;;;;;;;;4995434;28;20088;-64
2022/01/03 12:09:35;;;;;;;15.25;2.58;;;;;;;;;;5002876;28;20494;-64
2022/01/03 12:12:01;;;;;;;8.88;2.55;;;;;;;;;;4990993;28;20026;-64
2022/01/03 12:14:41;;;;;;;12.50;3.63;;;;;;;;;;4993357;28;20034;-64
2022/01/03 12:17:08;;;;;;;9.10;1.88;;;;;;;;;;4997949;28;20037;-64
2022/01/03 12:19:46;;;;;;;9.55;2.33;;;;;;;;;;4993834;28;20379;-64
2022/01/03 12:22:12;;;;;;;9.60;2.13;;;;;;;;;;4997599;28;20030;-64
2022/01/03 12:24:41;;;;;;;13.43;2.40;;;;;;;;;;4994120;28;20023;-64
2022/01/03 12:27:13;;;;;;;8.57;2.80;;;;;;;;;;5007057;28;20512;-64
2022/01/03 12:29:54;;;;;;;7.28;1.77;;;;;;;;;;5002752;28;20033;-64
2022/01/03 12:32:37;;;;;;;12.73;2.28;;;;;;;;;;5001025;28;20025;-64
2022/01/03 12:35:20;;;;;;;8.90;2.10;;;;;;;;;;5004906;28;20458;-64
2022/01/03 12:37:49;;;;;;;;;;;;;;;;;;4996211;28;20053;-64
2022/01/03 12:40:17;;;;;;;10.07;2.13;;;;;;;;;;5004419;28;19913;-64
2022/01/03 12:42:52;;;;;;;3.35;0.70;;;;;;;;;;5000988;28;20065;-64
2022/01/03 12:45:18;;;;;;;1.27;0.57;;;;;;;;;;4993809;28;20026;-64
2022/01/03 12:47:44;;;;;;;0.73;0.30;;;;;;;;;;4995630;28;20275;-64
2022/01/03 12:50:20;;;;;;;2.25;0.80;;;;;;;;;;5006222;28;20482;-64
2022/01/03 12:52:47;;;;;;;1.20;0.50;;;;;;;;;;5002918;28;20044;-64
2022/01/03 12:55:33;;;;;;;2.15;0.65;;;;;;;;;;4995013;28;20683;-64
2022/01/03 12:57:59;;;;;;;2.75;0.68;;;;;;;;;;4982695;28;20077;-64
2022/01/03 13:00:40;;;;;;;1.80;0.80;;;;;;;;;;4988829;28;20026;-64
2022/01/03 13:03:22;;;;;;;3.15;0.60;;;;;;;;;;5007862;28;20113;-64
2022/01/03 13:06:06;;;;;;;2.15;0.50;;;;;;;;;;4992168;28;20379;-64
2022/01/03 13:08:37;;;;;;;4.75;0.93;;;;;;;;;;4996674;28;20426;-64
2022/01/03 13:11:08;;;;;;;2.60;0.50;;;;;;;;;;4996249;28;20113;-64
2022/01/03 13:13:35;;;;;;;2.75;0.88;;;;;;;;;;5005858;28;20117;-64
2022/01/03 13:16:17;;;;;;;2.90;0.70;;;;;;;;;;4996753;28;20029;-64
2022/01/03 13:18:49;;;;;;;5.00;1.10;;;;;;;;;;4999799;28;20113;-64
2022/01/03 13:21:16;;;;;;;3.75;1.70;;;;;;;;;;4994149;28;20062;-64
2022/01/03 13:23:55;;;;;;;2.78;0.90;;;;;;;;;;4993258;28;20035;-64
2022/01/03 13:26:21;;;;;;;1.52;0.60;;;;;;;;;;4987662;28;20381;-64
2022/01/03 13:28:48;;;;;;;2.05;0.70;;;;;;;;;;4991951;28;20038;-64
2022/01/03 13:31:14;;;;;;;2.60;1.00;;;;;;;;;;4986603;28;20121;-64
2022/01/03 13:33:41;;;;;;;3.72;0.95;;;;;;;;;;4996111;28;20043;-64
2022/01/03 13:36:07;;;;;;;2.40;0.65;;;;;;;;;;5002650;28;20030;-64
2022/01/03 13:38:35;;;;;;;3.13;1.00;;;;;;;;;;4999138;28;20046;-64
2022/01/03 13:41:15;;;;;;;2.38;0.70;;;;;;;;;;4994529;28;20482;-64
2022/01/03 13:43:50;;;;;;;5.22;1.05;;;;;;;;;;4990949;28;20037;-64
2022/01/03 13:49:21;;;;;;;1.58;0.82;;;;;;;;;;4991643;28;20058;-64
2022/01/03 13:51:55;;;;;;;2.60;0.73;;;;;;;;;;4999918;28;20396;-64
2022/01/03 13:54:31;;;;;;;1.23;0.88;;;;;;;;;;4991412;28;20092;-64
2022/01/03 13:56:58;;;;;;;2.38;0.90;;;;;;;;;;4998738;28;20064;-64
2022/01/03 13:59:25;;;;;;;2.13;0.90;;;;;;;;;;4997616;28;20037;-64
2022/01/03 14:01:52;;;;;;;1.80;0.90;;;;;;;;;;4997072;28;20026;-64
2022/01/03 14:04:19;;;;;;;3.72;1.52;;;;;;;;;;4993056;28;20045;-64
2022/01/03 14:06:45;;;;;;;3.42;1.30;;;;;;;;;;4999617;28;20030;-64
2022/01/03 14:09:12;;;;;;;2.20;0.85;;;;;;;;;;4988865;28;20161;-64
2022/01/03 14:11:39;;;;;;;3.92;0.70;;;;;;;;;;4999258;28;20026;-64
2022/01/03 14:14:09;;;;;;;4.65;1.10;;;;;;;;;;4994323;28;20037;-64
2022/01/03 14:16:50;;;;;;;5.47;1.08;;;;;;;;;;4997618;28;20034;-64
2022/01/03 14:19:16;;;;;;;5.35;1.58;;;;;;;;;;5004225;28;20037;-64
2022/01/03 14:21:43;;;;;;;3.45;1.10;;;;;;;;;;4999666;28;20026;-64
2022/01/03 14:24:10;;;;;;;4.25;1.65;;;;;;;;;;4997309;28;20033;-64
2022/01/03 14:26:37;;;;;;;5.90;1.20;;;;;;;;;;4989676;28;20477;-64
2022/01/03 14:29:07;;;;;;;5.13;1.30;;;;;;;;;;4994602;28;20081;-64
2022/01/03 14:31:42;;;;;;;3.17;2.22;;;;;;;;;;4994096;28;20053;-63
2022/01/03 14:34:08;;;;;;;5.38;2.05;;;;;;;;;;4994092;28;20030;-63
2022/01/03 14:36:38;;;;;;;6.15;1.52;;;;;;;;;;4995134;28;20554;-63
2022/01/03 14:39:05;;;;;;;5.60;1.83;;;;;;;;;;4994240;28;20046;-63
2022/01/03 14:41:31;;;;;;;5.07;1.90;;;;;;;;;;4996858;28;20498;-70
2022/01/03 14:44:01;;;;;;;7.72;2.00;;;;;;;;;;4993700;28;20036;-63
2022/01/03 14:46:32;;;;;;;6.20;1.35;;;;;;;;;;4991002;28;20026;-64
2022/01/03 14:48:58;;;;;;;7.82;1.90;;;;;;;;;;4990817;28;20026;-64
2022/01/03 14:51:34;;;;;;;5.13;2.10;;;;;;;;;;4993232;28;20054;-64
2022/01/03 14:54:19;;;;;;;6.90;2.40;;;;;;;;;;4990136;28;20414;-64
2022/01/03 14:56:49;;;;;;;6.82;1.63;;;;;;;;;;4993658;28;20081;-64
2022/01/03 14:59:16;;;;;;;4.93;1.80;;;;;;;;;;4973837;28;20121;-64
2022/01/03 15:01:45;;;;;;;4.88;1.52;;;;;;;;;;4993663;28;20556;-64
2022/01/03 15:04:12;;;;;;;4.68;1.25;;;;;;;;;;4994856;28;20029;-64
2022/01/03 15:06:38;;;;;;;6.25;1.70;;;;;;;;;;4991573;28;20130;-64